21.5°F
Current conditions from King Hill
Updated every 5 minutes
 
  Sunday December 21, 2014

Station Historical Data
Daily Summary for May 5, 2012 Units:  English    Metric   Both
« Previous Day
Next Day »
Daily Weekly Monthly Yearly Custom
  High: Low: Average:
Temperature: 59.0 °F 41.7 °F 49.1 °F
Dew Point: 54.7 °F 33.8 °F 40.3 °F
Humidity: 96% 48% 73%
Wind Speed: 7.0mph 1.0mph 2.2mph
Wind Gust: 17.0mph - -
Wind- - South
Pressure: 30.10 in 29.90 in -
Precipitation: 0.00 in    
Historical Graphs
 
 
Tabular Data for May 5, 2012
Time Temperature Dew Point Pressure Wind Wind Speed Wind Gust Humidity Daily Rainfall
00:04 55.8 °F 54.7 °F 29.90 in NNW 7.0 mph 16.0 mph 96% 0.00 in
00:09 55.1 °F 53.7 °F 29.90 in NNW 5.0 mph 15.0 mph 95% 0.00 in
00:14 54.4 °F 53.0 °F 29.90 in NW 7.0 mph 17.0 mph 95% 0.00 in
00:19 53.7 °F 52.3 °F 29.90 in NNW 3.0 mph 17.0 mph 95% 0.00 in
00:24 52.9 °F 51.5 °F 29.90 in NNW 4.0 mph 14.0 mph 95% 0.00 in
00:29 52.1 °F 50.7 °F 29.91 in NNW 5.0 mph 14.0 mph 95% 0.00 in
00:34 51.4 °F 50.0 °F 29.91 in NNW 3.0 mph 11.0 mph 95% 0.00 in
00:39 50.9 °F 49.5 °F 29.91 in North 3.0 mph 10.0 mph 95% 0.00 in
00:44 50.4 °F 49.0 °F 29.92 in North 4.0 mph 12.0 mph 95% 0.00 in
00:49 50.0 °F 48.6 °F 29.92 in NNW 3.0 mph 15.0 mph 95% 0.00 in
00:54 49.7 °F 48.3 °F 29.92 in NNW 3.0 mph 15.0 mph 95% 0.00 in
00:59 49.5 °F 48.1 °F 29.92 in NNW 4.0 mph 10.0 mph 95% 0.00 in
01:04 49.1 °F 47.7 °F 29.92 in NNW 5.0 mph 11.0 mph 95% 0.00 in
01:09 48.5 °F 47.1 °F 29.92 in North 7.0 mph 16.0 mph 95% 0.00 in
01:14 47.9 °F 46.5 °F 29.93 in NNW 3.0 mph 16.0 mph 95% 0.00 in
01:19 47.5 °F 46.1 °F 29.93 in North 5.0 mph 13.0 mph 95% 0.00 in
01:24 47.2 °F 45.8 °F 29.93 in NNW 1.0 mph 13.0 mph 95% 0.00 in
01:29 47.1 °F 45.7 °F 29.93 in NNW 4.0 mph 9.0 mph 95% 0.00 in
01:34 46.9 °F 45.5 °F 29.93 in NNW 2.0 mph 9.0 mph 95% 0.00 in
01:39 46.7 °F 45.3 °F 29.93 in North 2.0 mph 11.0 mph 95% 0.00 in
02:59 45.3 °F 43.4 °F 29.97 in North 3.0 mph 11.0 mph 93% 0.00 in
03:04 45.2 °F 43.3 °F 29.97 in NNE 1.0 mph 11.0 mph 93% 0.00 in
03:09 45.2 °F 43.3 °F 29.97 in NNE 1.0 mph 10.0 mph 93% 0.00 in
03:14 45.2 °F 43.0 °F 29.97 in NNE 2.0 mph 10.0 mph 92% 0.00 in
03:19 45.1 °F 42.9 °F 29.97 in NE 2.0 mph 9.0 mph 92% 0.00 in
03:24 45.1 °F 42.9 °F 29.97 in NNE 1.0 mph 9.0 mph 92% 0.00 in
03:29 45.0 °F 42.8 °F 29.97 in NE 1.0 mph 6.0 mph 92% 0.00 in
03:34 45.0 °F 42.8 °F 29.97 in ENE 1.0 mph 11.0 mph 92% 0.00 in
03:39 45.0 °F 42.8 °F 29.97 in NE 2.0 mph 11.0 mph 92% 0.00 in
03:45 45.0 °F 42.5 °F 29.97 in Calm   11.0 mph 91% 0.00 in
03:54 44.9 °F 42.4 °F 29.97 in NNE 1.0 mph 8.0 mph 91% 0.00 in
03:59 44.9 °F 42.4 °F 29.97 in NNW 1.0 mph 8.0 mph 91% 0.00 in
04:04 44.9 °F 42.4 °F 29.97 in North 1.0 mph 7.0 mph 91% 0.00 in
04:09 44.8 °F 42.0 °F 29.97 in NNE 1.0 mph 7.0 mph 90% 0.00 in
04:14 44.8 °F 42.0 °F 29.97 in NNE 2.0 mph 10.0 mph 90% 0.00 in
04:19 44.7 °F 41.9 °F 29.98 in Calm   10.0 mph 90% 0.00 in
04:24 44.7 °F 41.9 °F 29.98 in NNE 2.0 mph 8.0 mph 90% 0.00 in
04:29 44.7 °F 41.7 °F 29.98 in NE 3.0 mph 9.0 mph 89% 0.00 in
04:34 44.6 °F 41.6 °F 29.98 in North 2.0 mph 9.0 mph 89% 0.00 in
04:39 44.6 °F 41.6 °F 29.98 in NNE 2.0 mph 8.0 mph 89% 0.00 in
04:44 44.5 °F 41.5 °F 29.98 in NNE 3.0 mph 8.0 mph 89% 0.00 in
04:49 44.5 °F 41.5 °F 29.98 in NNE 2.0 mph 8.0 mph 89% 0.00 in
04:54 44.4 °F 41.4 °F 29.99 in NNW 1.0 mph 8.0 mph 89% 0.00 in
04:59 44.4 °F 41.4 °F 29.99 in Calm   8.0 mph 89% 0.00 in
05:04 44.3 °F 41.3 °F 29.98 in NNE 1.0 mph 5.0 mph 89% 0.00 in
05:09 44.2 °F 41.2 °F 29.98 in Calm   7.0 mph 89% 0.00 in
05:14 44.1 °F 41.1 °F 29.99 in Calm   8.0 mph 89% 0.00 in
05:19 44.0 °F 41.0 °F 29.98 in NNE 1.0 mph 8.0 mph 89% 0.00 in
05:24 43.9 °F 40.9 °F 29.98 in Calm   7.0 mph 89% 0.00 in
05:29 43.8 °F 40.8 °F 29.99 in North 3.0 mph 8.0 mph 89% 0.00 in
05:34 43.7 °F 40.7 °F 29.99 in NNE 1.0 mph 8.0 mph 89% 0.00 in
05:39 43.7 °F 40.7 °F 29.99 in North 2.0 mph 7.0 mph 89% 0.00 in
05:44 43.6 °F 40.6 °F 29.99 in North 1.0 mph 8.0 mph 89% 0.00 in
05:49 43.4 °F 40.1 °F 29.99 in NNE 1.0 mph 8.0 mph 88% 0.00 in
05:59 43.4 °F 40.4 °F 29.99 in NNE 1.0 mph 6.0 mph 89% 0.00 in
06:04 43.3 °F 40.3 °F 29.99 in NE 1.0 mph 8.0 mph 89% 0.00 in
06:09 43.2 °F 40.2 °F 30.00 in NE 1.0 mph 9.0 mph 89% 0.00 in
06:14 43.2 °F 40.2 °F 30.00 in Calm   9.0 mph 89% 0.00 in
06:19 43.2 °F 40.2 °F 30.00 in NNE 1.0 mph 7.0 mph 89% 0.00 in
06:24 43.2 °F 40.2 °F 30.00 in Calm   6.0 mph 89% 0.00 in
06:29 43.2 °F 40.2 °F 30.01 in Calm   5.0 mph 89% 0.00 in
06:34 43.2 °F 40.5 °F 30.01 in North 3.0 mph 8.0 mph 90% 0.00 in
06:39 43.1 °F 40.4 °F 30.01 in Calm   8.0 mph 90% 0.00 in
06:44 43.0 °F 40.3 °F 30.01 in NNW 1.0 mph 8.0 mph 90% 0.00 in
06:49 42.9 °F 40.2 °F 30.01 in NE 1.0 mph 8.0 mph 90% 0.00 in
06:54 42.8 °F 40.1 °F 30.01 in NNE 3.0 mph 9.0 mph 90% 0.00 in
06:59 42.5 °F 39.8 °F 30.02 in North 2.0 mph 9.0 mph 90% 0.00 in
07:04 42.6 °F 39.9 °F 30.02 in NE 1.0 mph 9.0 mph 90% 0.00 in
07:09 42.6 °F 40.2 °F 30.02 in North 1.0 mph 9.0 mph 91% 0.00 in
07:14 42.6 °F 40.2 °F 30.02 in North 2.0 mph 7.0 mph 91% 0.00 in
07:19 42.7 °F 40.3 °F 30.02 in Calm   7.0 mph 91% 0.00 in
07:24 42.7 °F 40.3 °F 30.02 in Calm   5.0 mph 91% 0.00 in
07:29 42.7 °F 40.0 °F 30.02 in Calm   4.0 mph 90% 0.00 in
07:34 42.6 °F 39.9 °F 30.02 in North 3.0 mph 10.0 mph 90% 0.00 in
07:39 42.5 °F 39.8 °F 30.02 in Calm   10.0 mph 90% 0.00 in
07:44 42.4 °F 39.4 °F 30.03 in Calm   10.0 mph 89% 0.00 in
07:49 42.4 °F 39.4 °F 30.03 in Calm   4.0 mph 89% 0.00 in
07:54 42.3 °F 39.3 °F 30.03 in North 1.0 mph 6.0 mph 89% 0.00 in
07:59 42.3 °F 39.3 °F 30.03 in Calm   6.0 mph 89% 0.00 in
08:04 42.4 °F 39.4 °F 30.04 in Calm   6.0 mph 89% 0.00 in
08:09 42.5 °F 39.2 °F 30.04 in NNE 1.0 mph 6.0 mph 88% 0.00 in
08:14 42.8 °F 39.5 °F 30.04 in NNE 2.0 mph 6.0 mph 88% 0.00 in
08:19 42.8 °F 39.5 °F 30.04 in North 1.0 mph 6.0 mph 88% 0.00 in
08:24 42.9 °F 39.6 °F 30.04 in Calm   5.0 mph 88% 0.00 in
08:29 42.9 °F 39.3 °F 30.04 in NNE 2.0 mph 7.0 mph 87% 0.00 in
08:34 43.0 °F 39.4 °F 30.05 in Calm   7.0 mph 87% 0.00 in
08:39 43.0 °F 39.1 °F 30.05 in Calm   6.0 mph 86% 0.00 in
08:44 43.1 °F 39.2 °F 30.05 in North 2.0 mph 8.0 mph 86% 0.00 in
08:49 43.3 °F 39.1 °F 30.06 in North 2.0 mph 9.0 mph 85% 0.00 in
08:59 43.7 °F 38.3 °F 30.06 in NNE 2.0 mph 7.0 mph 81% 0.00 in
09:04 43.9 °F 38.8 °F 30.06 in NNE 1.0 mph 6.0 mph 82% 0.00 in
09:09 43.9 °F 38.1 °F 30.06 in Calm   6.0 mph 80% 0.00 in
09:14 44.1 °F 38.3 °F 30.06 in NE 2.0 mph 8.0 mph 80% 0.00 in
09:19 43.9 °F 38.1 °F 30.07 in Calm   8.0 mph 80% 0.00 in
09:24 43.9 °F 38.5 °F 30.07 in North 2.0 mph 9.0 mph 81% 0.00 in
09:34 44.0 °F 38.5 °F 30.07 in Calm   8.0 mph 81% 0.00 in
09:39 44.2 °F 38.7 °F 30.07 in NNW 1.0 mph 8.0 mph 81% 0.00 in
09:44 44.3 °F 38.5 °F 30.07 in Calm   8.0 mph 80% 0.00 in
09:49 44.5 °F 39.0 °F 30.08 in Calm   6.0 mph 81% 0.00 in
09:54 44.8 °F 38.7 °F 30.08 in Calm   5.0 mph 79% 0.00 in
09:59 45.0 °F 38.9 °F 30.08 in Calm   9.0 mph 79% 0.00 in
10:04 45.2 °F 39.4 °F 30.08 in NW 1.0 mph 9.0 mph 80% 0.00 in
10:09 45.2 °F 38.4 °F 30.08 in North 3.0 mph 8.0 mph 77% 0.00 in
10:14 45.4 °F 38.9 °F 30.08 in North 3.0 mph 10.0 mph 78% 0.00 in
10:19 45.4 °F 38.3 °F 30.08 in NNE 1.0 mph 10.0 mph 76% 0.00 in
10:24 45.9 °F 39.4 °F 30.08 in Calm   8.0 mph 78% 0.00 in
10:29 46.5 °F 39.3 °F 30.08 in NNE 2.0 mph 7.0 mph 76% 0.00 in
10:34 46.2 °F 38.4 °F 30.09 in NNE 3.0 mph 9.0 mph 74% 0.00 in
10:39 46.5 °F 39.3 °F 30.09 in NNW 1.0 mph 9.0 mph 76% 0.00 in
10:44 46.9 °F 39.1 °F 30.09 in Calm   6.0 mph 74% 0.00 in
10:49 47.2 °F 39.7 °F 30.09 in NNW 2.0 mph 8.0 mph 75% 0.00 in
10:54 47.3 °F 39.4 °F 30.10 in NNW 1.0 mph 8.0 mph 74% 0.00 in
10:59 47.1 °F 38.9 °F 30.09 in NW 3.0 mph 9.0 mph 73% 0.00 in
11:04 47.3 °F 39.4 °F 30.09 in Calm   10.0 mph 74% 0.00 in
11:09 48.0 °F 40.5 °F 30.09 in NW 3.0 mph 10.0 mph 75% 0.00 in
11:14 48.8 °F 40.5 °F 30.09 in NNE 3.0 mph 9.0 mph 73% 0.00 in
11:19 49.5 °F 40.9 °F 30.09 in Calm   9.0 mph 72% 0.00 in
11:24 49.8 °F 40.4 °F 30.09 in North 2.0 mph 8.0 mph 70% 0.00 in
11:34 50.6 °F 41.6 °F 30.09 in Calm   6.0 mph 71% 0.00 in
11:39 50.5 °F 41.1 °F 30.09 in North 4.0 mph 9.0 mph 70% 0.00 in
11:44 50.9 °F 41.8 °F 30.08 in NE 3.0 mph 12.0 mph 71% 0.00 in
11:49 51.5 °F 40.5 °F 30.08 in North 5.0 mph 13.0 mph 66% 0.00 in
11:54 51.7 °F 41.5 °F 30.08 in North 3.0 mph 13.0 mph 68% 0.00 in
11:59 51.4 °F 40.8 °F 30.08 in NE 2.0 mph 10.0 mph 67% 0.00 in
12:04 51.2 °F 41.8 °F 30.08 in NNW 2.0 mph 10.0 mph 70% 0.00 in
12:09 51.4 °F 41.6 °F 30.08 in North 1.0 mph 9.0 mph 69% 0.00 in
12:14 51.9 °F 41.3 °F 30.08 in North 5.0 mph 9.0 mph 67% 0.00 in
12:19 52.6 °F 40.8 °F 30.08 in North 6.0 mph 15.0 mph 64% 0.00 in
12:24 52.2 °F 41.2 °F 30.08 in NNW 2.0 mph 15.0 mph 66% 0.00 in
12:34 52.8 °F 41.8 °F 30.08 in NNW 1.0 mph 9.0 mph 66% 0.00 in
12:39 53.3 °F 42.6 °F 30.08 in NNE 1.0 mph 9.0 mph 67% 0.00 in
12:44 53.6 °F 42.5 °F 30.07 in NNE 3.0 mph 9.0 mph 66% 0.00 in
12:49 53.8 °F 41.9 °F 30.07 in NNW 3.0 mph 9.0 mph 64% 0.00 in
12:54 54.1 °F 42.6 °F 30.07 in North 2.0 mph 9.0 mph 65% 0.00 in
12:59 54.5 °F 42.6 °F 30.07 in NE 3.0 mph 12.0 mph 64% 0.00 in
13:04 54.2 °F 41.9 °F 30.07 in NNW 1.0 mph 12.0 mph 63% 0.00 in
13:09 54.3 °F 43.2 °F 30.07 in NW 2.0 mph 8.0 mph 66% 0.00 in
13:14 54.6 °F 42.7 °F 30.07 in Calm   8.0 mph 64% 0.00 in
13:19 54.9 °F 43.0 °F 30.07 in North 2.0 mph 8.0 mph 64% 0.00 in
13:24 54.7 °F 41.5 °F 30.07 in NNE 4.0 mph 12.0 mph 61% 0.00 in
13:29 54.4 °F 41.2 °F 30.06 in NW 2.0 mph 12.0 mph 61% 0.00 in
13:34 54.4 °F 42.9 °F 30.06 in NNW 2.0 mph 10.0 mph 65% 0.00 in
13:39 55.1 °F 42.7 °F 30.06 in NNW 1.0 mph 10.0 mph 63% 0.00 in
13:44 55.6 °F 41.1 °F 30.06 in North 2.0 mph 9.0 mph 58% 0.00 in
13:54 55.8 °F 42.6 °F 30.06 in NNW 2.0 mph 9.0 mph 61% 0.00 in
13:59 56.2 °F 42.1 °F 30.06 in NNE 3.0 mph 13.0 mph 59% 0.00 in
14:04 56.5 °F 41.9 °F 30.06 in NNE 1.0 mph 13.0 mph 58% 0.00 in
14:14 56.5 °F 41.0 °F 30.06 in Calm   11.0 mph 56% 0.00 in
14:19 56.9 °F 41.4 °F 30.06 in North 1.0 mph 11.0 mph 56% 0.00 in
14:24 56.9 °F 43.2 °F 30.06 in NNW 1.0 mph 9.0 mph 60% 0.00 in
14:34 56.8 °F 42.2 °F 30.05 in North 1.0 mph 10.0 mph 58% 0.00 in
14:39 56.7 °F 41.2 °F 30.05 in Calm   10.0 mph 56% 0.00 in
14:49 57.4 °F 40.9 °F 30.05 in NW 1.0 mph 10.0 mph 54% 0.00 in
14:54 57.2 °F 41.7 °F 30.05 in North 3.0 mph 13.0 mph 56% 0.00 in
14:59 56.8 °F 40.8 °F 30.05 in NNW 2.0 mph 13.0 mph 55% 0.00 in
15:04 56.8 °F 40.8 °F 30.05 in Calm   8.0 mph 55% 0.00 in
15:09 56.6 °F 42.0 °F 30.05 in NNW 2.0 mph 10.0 mph 58% 0.00 in
15:14 57.1 °F 42.0 °F 30.05 in NW 4.0 mph 11.0 mph 57% 0.00 in
15:19 57.4 °F 44.1 °F 30.05 in NNW 1.0 mph 11.0 mph 61% 0.00 in
15:24 57.6 °F 42.0 °F 30.05 in NW 4.0 mph 14.0 mph 56% 0.00 in
15:29 57.6 °F 42.5 °F 30.05 in NW 3.0 mph 14.0 mph 57% 0.00 in
15:34 57.7 °F 43.5 °F 30.05 in NNW 1.0 mph 11.0 mph 59% 0.00 in
15:39 57.9 °F 41.8 °F 30.05 in Calm   7.0 mph 55% 0.00 in
15:49 57.5 °F 42.4 °F 30.05 in NW 2.0 mph 11.0 mph 57% 0.00 in
15:54 57.3 °F 41.7 °F 30.05 in NW 6.0 mph 13.0 mph 56% 0.00 in
15:59 57.5 °F 42.4 °F 30.05 in Calm   13.0 mph 57% 0.00 in
16:04 57.6 °F 42.0 °F 30.05 in North 4.0 mph 12.0 mph 56% 0.00 in
16:09 57.6 °F 42.0 °F 30.05 in NW 1.0 mph 12.0 mph 56% 0.00 in
16:14 57.7 °F 42.1 °F 30.05 in NW 2.0 mph 8.0 mph 56% 0.00 in
16:19 57.9 °F 41.8 °F 30.05 in NNE 1.0 mph 8.0 mph 55% 0.00 in
16:24 58.3 °F 42.7 °F 30.05 in NNW 1.0 mph 7.0 mph 56% 0.00 in
16:29 58.6 °F 41.5 °F 30.05 in NW 4.0 mph 11.0 mph 53% 0.00 in
16:39 58.4 °F 41.8 °F 30.04 in NNW 2.0 mph 9.0 mph 54% 0.00 in
16:44 58.4 °F 42.3 °F 30.04 in NNW 1.0 mph 9.0 mph 55% 0.00 in
16:50 58.7 °F 41.6 °F 30.05 in Calm   8.0 mph 53% 0.00 in
16:59 58.5 °F 43.3 °F 30.04 in NNW 1.0 mph 11.0 mph 57% 0.00 in
17:09 59.0 °F 42.4 °F 30.04 in NNW 1.0 mph 9.0 mph 54% 0.00 in
17:14 59.0 °F 40.4 °F 30.04 in NNW 1.0 mph 9.0 mph 50% 0.00 in
17:19 59.0 °F 39.9 °F 30.04 in NNE 3.0 mph 9.0 mph 49% 0.00 in
17:24 59.0 °F 40.9 °F 30.04 in Calm   8.0 mph 51% 0.00 in
17:29 59.0 °F 40.9 °F 30.04 in NW 1.0 mph 6.0 mph 51% 0.00 in
17:34 59.0 °F 39.9 °F 30.04 in NNW 2.0 mph 8.0 mph 49% 0.00 in
17:39 58.6 °F 39.0 °F 30.04 in North 1.0 mph 8.0 mph 48% 0.00 in
17:44 58.7 °F 40.1 °F 30.04 in NNE 2.0 mph 8.0 mph 50% 0.00 in
17:49 58.6 °F 40.0 °F 30.04 in Calm   8.0 mph 50% 0.00 in
17:54 58.6 °F 39.5 °F 30.04 in NNW 1.0 mph 8.0 mph 49% 0.00 in
17:59 58.6 °F 40.5 °F 30.04 in Calm   6.0 mph 51% 0.00 in
18:04 59.0 °F 40.9 °F 30.04 in Calm   5.0 mph 51% 0.00 in
18:09 59.0 °F 39.9 °F 30.04 in North 1.0 mph 9.0 mph 49% 0.00 in
18:19 57.9 °F 39.4 °F 30.05 in North 1.0 mph 13.0 mph 50% 0.00 in
18:24 57.4 °F 39.4 °F 30.05 in North 2.0 mph 13.0 mph 51% 0.00 in
18:29 57.2 °F 39.2 °F 30.05 in NNE 2.0 mph 11.0 mph 51% 0.00 in
18:34 57.3 °F 39.3 °F 30.05 in North 1.0 mph 8.0 mph 51% 0.00 in
18:39 57.5 °F 40.0 °F 30.05 in North 1.0 mph 7.0 mph 52% 0.00 in
18:44 57.2 °F 38.7 °F 30.05 in North 1.0 mph 9.0 mph 50% 0.00 in
18:49 57.1 °F 39.7 °F 30.05 in Calm   9.0 mph 52% 0.00 in
18:54 56.7 °F 38.8 °F 30.05 in NNE 2.0 mph 8.0 mph 51% 0.00 in
18:59 56.3 °F 38.4 °F 30.05 in Calm   8.0 mph 51% 0.00 in
19:09 55.5 °F 38.7 °F 30.05 in NNE 1.0 mph 7.0 mph 53% 0.00 in
19:14 55.1 °F 38.3 °F 30.05 in NNE 2.0 mph 10.0 mph 53% 0.00 in
19:19 54.6 °F 38.3 °F 30.06 in Calm   10.0 mph 54% 0.00 in
19:24 54.2 °F 37.9 °F 30.05 in Calm   10.0 mph 54% 0.00 in
19:29 53.9 °F 38.1 °F 30.06 in Calm   6.0 mph 55% 0.00 in
19:34 53.6 °F 39.2 °F 30.06 in Calm   4.0 mph 58% 0.00 in
19:39 53.2 °F 37.9 °F 30.06 in NNE 1.0 mph 8.0 mph 56% 0.00 in
19:44 52.7 °F 37.5 °F 30.06 in Calm   8.0 mph 56% 0.00 in
19:49 52.3 °F 37.1 °F 30.06 in Calm   5.0 mph 56% 0.00 in
19:54 51.7 °F 37.4 °F 30.06 in Calm   1.0 mph 58% 0.00 in
20:05 50.3 °F 37.4 °F 30.06 in Calm   2.0 mph 61% 0.00 in
20:14 49.1 °F 36.6 °F 30.06 in Calm   5.0 mph 62% 0.00 in
20:19 48.7 °F 36.3 °F 30.06 in Calm   5.0 mph 62% 0.00 in
20:24 48.5 °F 35.7 °F 30.06 in Calm   5.0 mph 61% 0.00 in
20:29 48.4 °F 35.6 °F 30.06 in Calm   5.0 mph 61% 0.00 in
20:34 48.1 °F 34.9 °F 30.06 in Calm   5.0 mph 60% 0.00 in
20:39 47.9 °F 34.7 °F 30.06 in Calm   1.0 mph 60% 0.00 in
20:44 47.5 °F 35.5 °F 30.07 in Calm   1.0 mph 63% 0.00 in
20:49 46.9 °F 35.8 °F 30.08 in Calm     65% 0.00 in
20:54 46.3 °F 35.9 °F 30.08 in Calm     67% 0.00 in
20:59 45.8 °F 35.8 °F 30.08 in Calm     68% 0.00 in
21:04 45.5 °F 35.2 °F 30.08 in Calm     67% 0.00 in
21:09 45.4 °F 35.1 °F 30.09 in Calm     67% 0.00 in
21:14 45.5 °F 34.4 °F 30.09 in Calm   2.0 mph 65% 0.00 in
21:19 45.8 °F 35.1 °F 30.09 in Calm   3.0 mph 66% 0.00 in
21:24 46.1 °F 34.2 °F 30.09 in NNE 1.0 mph 6.0 mph 63% 0.00 in
21:29 46.4 °F 34.5 °F 30.09 in NE 1.0 mph 6.0 mph 63% 0.00 in
21:34 46.7 °F 34.8 °F 30.09 in Calm   5.0 mph 63% 0.00 in
21:39 46.6 °F 35.9 °F 30.09 in Calm   5.0 mph 66% 0.00 in
21:44 46.1 °F 35.4 °F 30.09 in Calm   2.0 mph 66% 0.00 in
21:54 45.5 °F 35.9 °F 30.09 in Calm   2.0 mph 69% 0.00 in
21:59 45.0 °F 35.4 °F 30.09 in Calm   2.0 mph 69% 0.00 in
22:04 45.0 °F 34.7 °F 30.09 in Calm   5.0 mph 67% 0.00 in
22:14 45.0 °F 35.8 °F 30.09 in Calm   1.0 mph 70% 0.00 in
22:19 44.6 °F 35.8 °F 30.09 in Calm   4.0 mph 71% 0.00 in
22:24 44.5 °F 35.3 °F 30.09 in Calm   4.0 mph 70% 0.00 in
22:29 44.2 °F 35.4 °F 30.09 in Calm   5.0 mph 71% 0.00 in
22:34 44.0 °F 35.2 °F 30.09 in Calm   5.0 mph 71% 0.00 in
22:39 43.7 °F 34.9 °F 30.09 in Calm     71% 0.00 in
22:44 43.5 °F 34.7 °F 30.09 in Calm   3.0 mph 71% 0.00 in
22:49 43.3 °F 34.9 °F 30.08 in Calm   3.0 mph 72% 0.00 in
22:54 43.2 °F 35.1 °F 30.09 in Calm     73% 0.00 in
22:59 42.8 °F 35.1 °F 30.09 in Calm     74% 0.00 in
23:04 42.7 °F 34.7 °F 30.09 in Calm     73% 0.00 in
23:09 42.3 °F 34.3 °F 30.09 in Calm     73% 0.00 in
23:14 42.2 °F 34.5 °F 30.09 in Calm     74% 0.00 in
23:19 41.9 °F 34.2 °F 30.09 in Calm     74% 0.00 in
23:24 42.0 °F 34.0 °F 30.09 in Calm     73% 0.00 in
23:29 42.1 °F 34.1 °F 30.09 in Calm     73% 0.00 in
23:34 41.9 °F 33.9 °F 30.09 in Calm     73% 0.00 in
23:39 41.8 °F 33.8 °F 30.08 in Calm   1.0 mph 73% 0.00 in
23:44 41.7 °F 34.0 °F 30.08 in Calm   1.0 mph 74% 0.00 in
23:49 41.7 °F 34.4 °F 30.08 in Calm     75% 0.00 in
23:59 41.8 °F 34.1 °F 30.09 in Calm     74% 0.00 in
Westford Weather
Compliments of Weather Underground

 
 
Current Radar Loop:

Copyright © WestfordWeather.net 2007-2014. All rights reserved.